createdAt,value
2024-04-05T00:00:44.125Z,2277.00
2024-04-05T00:01:44.190Z,2273.00
2024-04-05T00:02:44.233Z,2285.00
2024-04-05T00:03:44.356Z,2263.00
2024-04-05T00:04:44.412Z,2274.00
2024-04-05T00:05:44.451Z,2279.00
2024-04-05T00:06:44.528Z,2278.00
2024-04-05T00:07:44.597Z,2271.00
2024-04-05T00:08:44.667Z,2280.00
2024-04-05T00:09:44.747Z,2274.00
2024-04-05T00:10:45.061Z,2268.00
2024-04-05T00:11:44.867Z,2273.00
2024-04-05T00:12:48.063Z,2276.00
2024-04-05T00:13:45.957Z,2276.00
2024-04-05T00:14:44.946Z,2272.00
2024-04-05T00:15:44.948Z,2277.00
2024-04-05T00:16:44.945Z,2276.00
2024-04-05T00:17:44.952Z,2278.00
2024-04-05T00:18:44.966Z,2269.00
2024-04-05T00:19:44.963Z,2269.00
2024-04-05T00:20:45.099Z,2289.00
2024-04-05T00:21:44.926Z,2271.00
2024-04-05T00:22:45.186Z,2281.00
2024-04-05T00:23:45.098Z,2277.00
2024-04-05T00:24:45.156Z,2277.00
2024-04-05T00:25:45.208Z,2260.00
2024-04-05T00:26:45.278Z,2277.00
2024-04-05T00:27:45.382Z,2288.00
2024-04-05T00:28:45.498Z,2282.00
2024-04-05T00:29:45.503Z,2287.00
2024-04-05T00:30:45.557Z,2287.00
2024-04-05T00:31:45.673Z,2287.00
2024-04-05T00:32:45.691Z,2280.00
2024-04-05T00:33:45.780Z,2264.00
2024-04-05T00:34:45.827Z,2265.00
2024-04-05T00:35:45.907Z,2262.00
2024-04-05T00:36:45.955Z,2275.00
2024-04-05T00:37:46.007Z,2269.00
2024-04-05T00:38:46.124Z,2257.00
2024-04-05T00:39:46.182Z,2255.00
2024-04-05T00:40:46.244Z,2276.00
2024-04-05T00:41:46.295Z,2269.00
2024-04-05T00:42:46.413Z,2260.00
2024-04-05T00:43:46.460Z,2279.00
2024-04-05T00:44:46.519Z,2264.00
2024-04-05T00:45:46.605Z,2271.00
2024-04-05T00:46:46.638Z,2258.00
2024-04-05T00:47:46.706Z,2255.00
2024-04-05T00:48:46.814Z,2269.00
2024-04-05T00:49:46.817Z,2261.00
2024-04-05T00:50:46.864Z,2257.00
2024-04-05T00:51:47.009Z,2270.00
2024-04-05T00:52:47.039Z,2288.00
2024-04-05T00:53:47.112Z,2264.00
2024-04-05T00:54:47.156Z,2268.00
2024-04-05T00:55:47.214Z,2266.00
2024-04-05T00:56:47.378Z,2244.00
2024-04-05T00:57:47.352Z,2252.00
2024-04-05T00:58:47.508Z,2255.00
2024-04-05T00:59:47.501Z,2290.00
2024-04-05T01:00:47.592Z,2253.00
2024-04-05T01:01:47.610Z,2250.00
2024-04-05T01:02:47.664Z,2281.00
2024-04-05T01:03:47.733Z,2260.00
2024-04-05T01:04:47.787Z,2238.00
2024-04-05T01:05:47.838Z,2241.00
2024-04-05T01:06:47.902Z,2236.00
2024-04-05T01:07:47.898Z,2258.00
2024-04-05T01:08:48.016Z,2248.00
2024-04-05T01:09:48.081Z,2252.00
2024-04-05T01:10:48.191Z,2265.00
2024-04-05T01:11:48.190Z,2250.00
2024-04-05T01:12:48.250Z,2238.00
2024-04-05T01:13:48.291Z,2252.00
2024-04-05T01:14:48.357Z,2250.00
2024-04-05T01:15:48.376Z,2241.00
2024-04-05T01:16:48.441Z,2258.00
2024-04-05T01:17:48.537Z,2251.00
2024-04-05T01:18:48.587Z,2249.00
2024-04-05T01:19:48.606Z,2236.00
2024-04-05T01:20:48.691Z,2237.00
2024-04-05T01:21:48.718Z,2226.00
2024-04-05T01:22:48.737Z,2244.00
2024-04-05T01:23:48.788Z,2241.00
2024-04-05T01:24:48.832Z,2244.00
2024-04-05T01:25:48.907Z,2253.00
2024-04-05T01:26:48.960Z,2231.00
2024-04-05T01:27:49.027Z,2232.00
2024-04-05T01:28:49.073Z,2236.00
2024-04-05T01:29:49.112Z,2226.00
2024-04-05T01:30:49.183Z,2234.00
2024-04-05T01:31:49.276Z,2237.00
2024-04-05T01:32:49.291Z,2246.00
2024-04-05T01:33:49.373Z,2244.00
2024-04-05T01:34:49.418Z,2248.00
2024-04-05T01:35:49.429Z,2240.00
2024-04-05T01:36:49.529Z,2250.00
2024-04-05T01:37:49.515Z,2215.00
2024-04-05T01:38:49.548Z,2224.00
2024-04-05T01:39:49.615Z,2248.00
2024-04-05T01:40:49.674Z,2239.00
2024-04-05T01:41:49.709Z,2231.00
2024-04-05T01:42:49.775Z,2232.00
2024-04-05T01:43:49.784Z,2228.00
2024-04-05T01:44:49.826Z,2231.00
2024-04-05T01:45:49.913Z,2245.00
2024-04-05T01:46:49.972Z,2229.00
2024-04-05T01:47:49.980Z,2201.00
2024-04-05T01:48:50.055Z,2212.00
2024-04-05T01:49:50.170Z,2210.00
2024-04-05T01:50:50.172Z,2241.00
2024-04-05T01:51:50.243Z,2208.00
2024-04-05T01:52:50.302Z,2218.00
2024-04-05T01:53:50.333Z,2229.00
2024-04-05T01:54:50.372Z,2211.00
2024-04-05T01:55:50.409Z,2215.00
2024-04-05T01:56:50.463Z,2213.00
2024-04-05T01:57:50.511Z,2216.00
2024-04-05T01:58:50.607Z,2209.00
2024-04-05T01:59:50.626Z,2233.00
2024-04-05T02:00:50.679Z,2233.00
2024-04-05T02:01:52.953Z,2212.00
2024-04-05T02:02:50.702Z,2219.00
2024-04-05T02:03:50.765Z,2202.00
2024-04-05T02:04:50.731Z,2224.00
2024-04-05T02:05:50.754Z,2219.00
2024-04-05T02:06:50.729Z,2218.00
2024-04-05T02:07:50.744Z,2226.00
2024-04-05T02:08:50.741Z,2213.00
2024-04-05T02:09:50.715Z,2208.00
2024-04-05T02:10:50.781Z,2205.00
2024-04-05T02:11:50.736Z,2205.00
2024-04-05T02:12:50.764Z,2209.00
2024-04-05T02:13:50.742Z,2193.00
2024-04-05T02:14:50.744Z,2203.00
2024-04-05T02:15:50.760Z,2204.00
2024-04-05T02:16:50.760Z,2214.00
2024-04-05T02:17:50.740Z,2203.00
2024-04-05T02:18:50.729Z,2204.00
2024-04-05T02:19:50.742Z,2198.00
2024-04-05T02:20:50.747Z,2213.00
2024-04-05T02:21:50.797Z,2203.00
2024-04-05T02:22:51.477Z,2194.00
2024-04-05T02:23:50.772Z,2210.00
2024-04-05T02:24:50.718Z,2187.00
2024-04-05T02:25:50.786Z,2208.00
2024-04-05T02:26:50.765Z,2218.00
2024-04-05T02:27:50.745Z,2190.00
2024-04-05T02:28:50.775Z,2198.00
2024-04-05T02:29:50.757Z,2214.00
2024-04-05T02:30:50.755Z,2189.00
2024-04-05T02:31:50.759Z,2208.00
2024-04-05T02:32:50.774Z,2203.00
2024-04-05T02:33:50.771Z,2200.00
2024-04-05T02:34:50.742Z,2199.00
2024-04-05T02:35:50.753Z,2199.00
2024-04-05T02:36:50.735Z,2191.00
2024-04-05T02:37:50.772Z,2170.00
2024-04-05T02:38:50.774Z,2207.00
2024-04-05T02:39:50.768Z,2203.00
2024-04-05T02:40:50.779Z,2193.00
2024-04-05T02:41:50.736Z,2203.00
2024-04-05T02:42:50.728Z,2192.00
2024-04-05T02:43:50.816Z,2178.00
2024-04-05T02:44:50.753Z,2174.00
2024-04-05T02:45:50.752Z,2183.00
2024-04-05T02:46:50.767Z,2177.00
2024-04-05T02:47:50.768Z,2173.00
2024-04-05T02:48:50.770Z,2188.00
2024-04-05T02:49:50.780Z,2167.00
2024-04-05T02:50:50.790Z,2165.00
2024-04-05T02:51:50.797Z,2179.00
2024-04-05T02:52:50.781Z,2199.00
2024-04-05T02:53:50.812Z,2166.00
2024-04-05T02:54:50.777Z,2194.00
2024-04-05T02:55:50.786Z,2158.00
2024-04-05T02:56:50.778Z,2184.00
2024-04-05T02:57:50.812Z,2174.00
2024-04-05T02:58:50.799Z,2202.00
2024-04-05T02:59:50.820Z,2172.00
2024-04-05T03:00:50.825Z,2169.00
2024-04-05T03:01:50.812Z,2171.00
2024-04-05T03:02:50.769Z,2179.00
2024-04-05T03:03:50.774Z,2157.00
2024-04-05T03:04:50.838Z,2165.00
2024-04-05T03:05:50.782Z,2184.00
2024-04-05T03:06:50.796Z,2141.00
2024-04-05T03:07:50.832Z,2158.00
2024-04-05T03:08:50.806Z,2156.00
2024-04-05T03:09:50.812Z,2161.00
2024-04-05T03:10:50.829Z,2162.00
2024-04-05T03:11:50.822Z,2151.00
2024-04-05T03:12:50.796Z,2148.00
2024-04-05T03:13:50.897Z,2144.00
2024-04-05T03:14:50.803Z,2158.00
2024-04-05T03:15:50.811Z,2180.00
2024-04-05T03:16:50.826Z,2165.00
2024-04-05T03:17:50.794Z,2153.00
2024-04-05T03:18:50.829Z,2132.00
2024-04-05T03:19:50.781Z,2154.00
2024-04-05T03:20:50.782Z,2153.00
2024-04-05T03:21:50.799Z,2143.00
2024-04-05T03:22:50.859Z,2152.00
2024-04-05T03:23:50.818Z,2137.00
2024-04-05T03:24:50.813Z,2145.00
2024-04-05T03:25:50.822Z,2148.00
2024-04-05T03:26:50.832Z,2154.00
2024-04-05T03:27:50.831Z,2163.00
2024-04-05T03:28:50.837Z,2157.00
2024-04-05T03:29:50.892Z,2149.00
2024-04-05T03:30:50.824Z,2124.00
2024-04-05T03:31:50.820Z,2150.00
2024-04-05T03:32:50.841Z,2139.00
2024-04-05T03:33:50.832Z,2143.00
2024-04-05T03:34:50.844Z,2144.00
2024-04-05T03:35:50.841Z,2138.00
2024-04-05T03:36:50.855Z,2139.00
2024-04-05T03:37:50.862Z,2144.00
2024-04-05T03:38:50.876Z,2141.00
2024-04-05T03:39:50.812Z,2148.00
2024-04-05T03:40:50.819Z,2152.00
2024-04-05T03:41:50.826Z,2139.00
2024-04-05T03:42:50.845Z,2121.00
2024-04-05T03:43:50.855Z,2134.00
2024-04-05T03:44:50.847Z,2127.00
2024-04-05T03:45:50.834Z,2144.00
2024-04-05T03:46:50.863Z,2136.00
2024-04-05T03:47:50.824Z,2146.00
2024-04-05T03:48:50.838Z,2154.00
2024-04-05T03:49:50.843Z,2135.00
2024-04-05T03:50:50.848Z,2130.00
2024-04-05T03:51:50.847Z,2156.00
2024-04-05T03:52:50.861Z,2143.00
2024-04-05T03:53:50.869Z,2145.00
2024-04-05T03:54:50.933Z,2145.00
2024-04-05T03:55:50.836Z,2121.00
2024-04-05T03:56:52.103Z,2129.00
2024-04-05T03:57:50.846Z,2148.00
2024-04-05T03:58:50.841Z,2131.00
2024-04-05T03:59:50.846Z,2123.00
2024-04-05T04:00:50.859Z,2117.00
2024-04-05T04:01:50.909Z,2122.00
2024-04-05T04:02:50.878Z,2124.00
2024-04-05T04:03:50.868Z,2116.00
2024-04-05T04:04:50.884Z,2113.00
2024-04-05T04:05:50.844Z,2103.00
2024-04-05T04:06:50.860Z,2111.00
2024-04-05T04:07:52.517Z,2085.00
2024-04-05T04:08:50.884Z,2086.00
2024-04-05T04:09:50.883Z,2086.00
2024-04-05T04:10:50.895Z,2088.00
2024-04-05T04:11:50.879Z,2075.00
2024-04-05T04:12:50.905Z,2073.00
2024-04-05T04:13:58.062Z,600.00
2024-04-05T04:14:58.076Z,600.00
2024-04-05T04:15:58.071Z,600.00
2024-04-05T04:16:58.086Z,600.00
2024-04-05T04:17:58.085Z,600.00
2024-04-05T04:18:58.109Z,610.00
2024-04-05T04:19:58.101Z,599.00
2024-04-05T04:20:58.122Z,607.00
2024-04-05T04:21:58.139Z,611.00
2024-04-05T04:22:58.076Z,601.00
2024-04-05T04:23:58.070Z,606.00
2024-04-05T04:24:58.076Z,611.00
2024-04-05T04:25:58.082Z,601.00
2024-04-05T04:26:58.160Z,608.00
2024-04-05T04:27:58.105Z,601.00
2024-04-05T04:28:58.085Z,606.00
2024-04-05T04:29:58.115Z,608.00
2024-04-05T04:31:05.284Z,600.00
2024-04-05T04:32:05.298Z,600.00
2024-04-05T04:33:05.292Z,600.00
2024-04-05T04:34:05.269Z,600.00
2024-04-05T04:35:05.308Z,600.00
2024-04-05T04:36:05.284Z,610.00
2024-04-05T04:37:05.291Z,600.00
2024-04-05T04:38:05.293Z,604.00
2024-04-05T04:39:05.301Z,603.00
2024-04-05T04:40:05.303Z,600.00
2024-04-05T04:41:05.301Z,616.00
2024-04-05T04:42:05.317Z,607.00
2024-04-05T04:43:07.807Z,602.00
2024-04-05T04:44:05.334Z,602.00
2024-04-05T04:45:05.278Z,599.00
2024-04-05T04:46:05.282Z,603.00
2024-04-05T04:47:05.293Z,597.00
2024-04-05T04:48:05.311Z,605.00
2024-04-05T04:49:05.307Z,609.00
2024-04-05T04:50:05.310Z,611.00
2024-04-05T04:51:05.290Z,609.00
2024-04-05T04:52:05.281Z,615.00
2024-04-05T04:53:05.324Z,603.00
2024-04-05T04:54:05.288Z,611.00
2024-04-05T04:55:05.304Z,616.00
2024-04-05T04:56:05.312Z,609.00
2024-04-05T04:57:05.323Z,605.00
2024-04-05T04:58:05.335Z,610.00
2024-04-05T04:59:05.329Z,607.00
2024-04-05T05:00:05.363Z,599.00
2024-04-05T05:01:05.344Z,612.00
2024-04-05T05:02:05.408Z,604.00
2024-04-05T05:03:05.296Z,610.00
2024-04-05T05:04:05.338Z,605.00
2024-04-05T05:05:05.304Z,608.00
2024-04-05T05:06:05.312Z,602.00
2024-04-05T05:07:05.322Z,609.00
2024-04-05T05:08:05.325Z,612.00
2024-04-05T05:09:05.329Z,603.00
2024-04-05T05:10:05.327Z,605.00
2024-04-05T05:11:05.348Z,620.00
2024-04-05T05:12:05.360Z,612.00
2024-04-05T05:13:08.689Z,613.00
2024-04-05T05:14:05.376Z,606.00
2024-04-05T05:15:05.329Z,612.00
2024-04-05T05:16:05.352Z,614.00
2024-04-05T05:17:05.352Z,613.00
2024-04-05T05:18:05.372Z,609.00
2024-04-05T05:19:05.377Z,614.00
2024-04-05T05:20:05.377Z,615.00
2024-04-05T05:21:05.378Z,614.00
2024-04-05T05:22:05.414Z,606.00
2024-04-05T05:23:05.396Z,610.00
2024-04-05T05:24:05.409Z,608.00
2024-04-05T05:25:05.429Z,610.00
2024-04-05T05:26:05.347Z,613.00
2024-04-05T05:27:05.376Z,613.00
2024-04-05T05:28:05.414Z,615.00
2024-04-05T05:29:05.373Z,610.00
2024-04-05T05:30:05.379Z,612.00
2024-04-05T05:31:05.385Z,611.00
2024-04-05T05:32:05.383Z,611.00
2024-04-05T05:33:05.400Z,608.00
2024-04-05T05:34:05.398Z,601.00
2024-04-05T05:35:05.372Z,607.00
2024-04-05T05:36:05.385Z,609.00
2024-04-05T05:37:05.371Z,611.00
2024-04-05T05:38:05.410Z,610.00
2024-04-05T05:39:05.395Z,611.00
2024-04-05T05:40:05.413Z,611.00
2024-04-05T05:41:05.425Z,616.00
2024-04-05T05:42:05.424Z,622.00
2024-04-05T05:43:05.935Z,617.00
2024-04-05T05:44:05.995Z,614.00
2024-04-05T05:45:05.983Z,610.00
2024-04-05T05:46:05.458Z,610.00
2024-04-05T05:47:05.448Z,614.00
2024-04-05T05:48:05.402Z,625.00
2024-04-05T05:49:05.476Z,632.00
2024-04-05T05:50:05.494Z,634.00
2024-04-05T05:51:05.480Z,640.00
2024-04-05T05:52:05.422Z,645.00
2024-04-05T05:53:05.406Z,649.00
2024-04-05T05:54:05.520Z,660.00
2024-04-05T05:55:05.955Z,663.00
2024-04-05T05:56:05.450Z,672.00
2024-04-05T05:57:05.581Z,682.00
2024-04-05T05:58:05.544Z,700.00
2024-04-05T05:59:05.564Z,724.00
2024-04-05T06:00:05.595Z,741.00
2024-04-05T06:01:06.471Z,760.00
2024-04-05T06:02:09.172Z,766.00
2024-04-05T06:03:05.707Z,767.00
2024-04-05T06:04:06.031Z,774.00
2024-04-05T06:05:05.681Z,788.00
2024-04-05T06:06:05.629Z,811.00
2024-04-05T06:07:05.629Z,850.00
2024-04-05T06:08:05.631Z,875.00
2024-04-05T06:09:05.969Z,879.00
2024-04-05T06:10:05.644Z,897.00
2024-04-05T06:11:05.646Z,902.00
2024-04-05T06:12:05.619Z,930.00
2024-04-05T06:13:05.623Z,955.00
2024-04-05T06:14:05.639Z,950.00
2024-04-05T06:15:05.995Z,963.00
2024-04-05T06:16:05.657Z,966.00
2024-04-05T06:17:05.669Z,976.00
2024-04-05T06:18:05.665Z,982.00
2024-04-05T06:19:05.671Z,998.00
2024-04-05T06:20:06.000Z,1018.00
2024-04-05T06:21:05.623Z,1018.00
2024-04-05T06:22:05.625Z,1027.00
2024-04-05T06:23:05.636Z,1040.00
2024-04-05T06:24:05.640Z,1045.00
2024-04-05T06:25:05.954Z,1051.00
2024-04-05T06:26:05.659Z,1059.00
2024-04-05T06:27:05.967Z,1068.00
2024-04-05T06:28:05.672Z,1064.00
2024-04-05T06:29:05.720Z,1061.00
2024-04-05T06:30:05.793Z,1061.00
2024-04-05T06:31:05.700Z,1078.00
2024-04-05T06:32:05.962Z,1077.00
2024-04-05T06:33:05.768Z,1082.00
2024-04-05T06:34:05.677Z,1085.00
2024-04-05T06:35:09.096Z,1089.00
2024-04-05T06:36:05.703Z,1090.00
2024-04-05T06:37:06.444Z,1091.00
2024-04-05T06:38:05.700Z,1095.00
2024-04-05T06:39:05.922Z,1088.00
2024-04-05T06:40:05.749Z,1084.00
2024-04-05T06:41:05.655Z,1056.00
2024-04-05T06:42:05.670Z,1028.00
2024-04-05T06:43:05.664Z,993.00
2024-04-05T06:44:05.786Z,964.00
2024-04-05T06:45:05.712Z,931.00
2024-04-05T06:46:05.787Z,912.00
2024-04-05T06:47:05.809Z,899.00
2024-04-05T06:48:05.691Z,894.00
2024-04-05T06:49:05.673Z,879.00
2024-04-05T06:50:05.989Z,874.00
2024-04-05T06:51:06.040Z,861.00
2024-04-05T06:52:05.693Z,847.00
2024-04-05T06:53:06.004Z,839.00
2024-04-05T06:54:05.689Z,834.00
2024-04-05T06:55:05.723Z,826.00
2024-04-05T06:56:06.487Z,800.00
2024-04-05T06:57:06.573Z,779.00
2024-04-05T06:58:05.984Z,768.00
2024-04-05T06:59:05.692Z,745.00
2024-04-05T07:00:05.962Z,716.00
2024-04-05T07:01:05.717Z,677.00
2024-04-05T07:02:06.425Z,662.00
2024-04-05T07:03:06.380Z,643.00
2024-04-05T07:04:05.749Z,637.00
2024-04-05T07:05:05.786Z,636.00
2024-04-05T07:06:05.920Z,628.00
2024-04-05T07:07:05.924Z,629.00
2024-04-05T07:08:06.052Z,632.00
2024-04-05T07:09:06.014Z,621.00
2024-04-05T07:10:06.046Z,615.00
2024-04-05T07:11:06.144Z,614.00
2024-04-05T07:12:06.146Z,607.00
2024-04-05T07:13:07.058Z,599.00
2024-04-05T07:14:06.203Z,604.00
2024-04-05T07:15:06.303Z,602.00
2024-04-05T07:16:06.460Z,609.00
2024-04-05T07:17:06.482Z,600.00
2024-04-05T07:18:06.476Z,604.00
2024-04-05T07:19:09.483Z,604.00
2024-04-05T07:20:06.502Z,599.00
2024-04-05T07:21:06.480Z,599.00
2024-04-05T07:22:07.034Z,608.00
2024-04-05T07:23:06.540Z,601.00
2024-04-05T07:24:06.535Z,608.00
2024-04-05T07:25:07.501Z,603.00
2024-04-05T07:26:06.544Z,606.00
2024-04-05T07:27:06.998Z,611.00
2024-04-05T07:28:06.503Z,612.00
2024-04-05T07:29:06.492Z,616.00
2024-04-05T07:30:07.503Z,616.00
2024-04-05T07:31:06.988Z,620.00
2024-04-05T07:32:06.554Z,619.00
2024-04-05T07:33:06.525Z,619.00
2024-04-05T07:34:06.490Z,617.00
2024-04-05T07:35:06.479Z,620.00
2024-04-05T07:36:07.007Z,622.00
2024-04-05T07:37:06.526Z,626.00
2024-04-05T07:38:06.976Z,623.00
2024-04-05T07:39:06.548Z,630.00
2024-04-05T07:40:07.171Z,636.00
2024-04-05T07:41:06.639Z,634.00
2024-04-05T07:42:06.538Z,636.00
2024-04-05T07:43:07.000Z,627.00
2024-04-05T07:44:06.561Z,625.00
2024-04-05T07:45:07.462Z,609.00
2024-04-05T07:46:06.568Z,603.00
2024-04-05T07:47:06.534Z,600.00
2024-04-05T07:48:07.003Z,602.00
2024-04-05T07:49:06.513Z,603.00
2024-04-05T07:50:06.574Z,602.00
2024-04-05T07:51:07.049Z,603.00
2024-04-05T07:52:07.687Z,605.00
2024-04-05T07:53:06.621Z,605.00
2024-04-05T07:54:06.601Z,609.00
2024-04-05T07:55:06.552Z,622.00
2024-04-05T07:56:07.200Z,639.00
2024-04-05T07:57:10.853Z,654.00
2024-04-05T07:58:08.500Z,655.00
2024-04-05T07:59:06.560Z,659.00
2024-04-05T08:00:08.736Z,666.00
2024-04-05T08:01:07.024Z,707.00
2024-04-05T08:02:06.610Z,760.00
2024-04-05T08:03:06.547Z,771.00
2024-04-05T08:04:06.584Z,798.00
2024-04-05T08:05:07.033Z,808.00
2024-04-05T08:06:06.590Z,845.00
2024-04-05T08:07:07.526Z,857.00
2024-04-05T08:08:06.610Z,866.00
2024-04-05T08:09:06.663Z,876.00
2024-04-05T08:10:06.583Z,886.00
2024-04-05T08:11:06.658Z,877.00
2024-04-05T08:12:10.128Z,886.00
2024-04-05T08:13:06.607Z,886.00
2024-04-05T08:14:06.604Z,887.00
2024-04-05T08:15:06.982Z,890.00
2024-04-05T08:16:06.690Z,895.00
2024-04-05T08:17:06.601Z,899.00
2024-04-05T08:18:06.570Z,905.00
2024-04-05T08:19:06.612Z,895.00
2024-04-05T08:20:07.110Z,896.00
2024-04-05T08:21:06.579Z,900.00
2024-04-05T08:22:06.597Z,901.00
2024-04-05T08:23:06.609Z,892.00
2024-04-05T08:24:06.618Z,888.00
2024-04-05T08:25:07.087Z,887.00
2024-04-05T08:26:06.620Z,879.00
2024-04-05T08:27:06.656Z,896.00
2024-04-05T08:28:06.656Z,878.00
2024-04-05T08:29:06.691Z,878.00
2024-04-05T08:30:06.654Z,853.00
2024-04-05T08:31:07.005Z,862.00
2024-04-05T08:32:06.617Z,854.00
2024-04-05T08:33:06.613Z,840.00
2024-04-05T08:34:06.632Z,823.00
2024-04-05T08:35:06.627Z,808.00
2024-04-05T08:36:06.633Z,787.00
2024-04-05T08:37:06.657Z,767.00
2024-04-05T08:38:06.639Z,736.00
2024-04-05T08:39:06.613Z,694.00
2024-04-05T08:40:06.622Z,662.00
2024-04-05T08:41:07.029Z,649.00
2024-04-05T08:42:06.621Z,640.00
2024-04-05T08:43:06.613Z,630.00
2024-04-05T08:44:06.657Z,626.00
2024-04-05T08:45:06.654Z,624.00
2024-04-05T08:46:06.635Z,618.00
2024-04-05T08:47:06.660Z,615.00
2024-04-05T08:48:07.049Z,611.00
2024-04-05T08:49:06.638Z,608.00
2024-04-05T08:50:06.639Z,602.00
2024-04-05T08:51:07.030Z,602.00
2024-04-05T08:52:06.643Z,601.00
2024-04-05T08:53:06.657Z,600.00
2024-04-05T08:54:06.657Z,601.00
2024-04-05T08:55:06.661Z,600.00
2024-04-05T08:56:07.117Z,603.00
2024-04-05T08:57:06.626Z,602.00
2024-04-05T08:58:06.645Z,600.00
2024-04-05T08:59:06.657Z,602.00
2024-04-05T09:00:06.657Z,600.00
2024-04-05T09:01:07.058Z,601.00
2024-04-05T09:02:06.659Z,603.00
2024-04-05T09:03:06.719Z,600.00
2024-04-05T09:04:07.554Z,602.00
2024-04-05T09:05:06.702Z,601.00
2024-04-05T09:06:07.055Z,602.00
2024-04-05T09:07:06.633Z,602.00
2024-04-05T09:08:07.107Z,605.00
2024-04-05T09:09:06.711Z,599.00
2024-04-05T09:10:06.751Z,600.00
2024-04-05T09:11:07.827Z,601.00
2024-04-05T09:12:07.026Z,600.00
2024-04-05T09:13:06.844Z,600.00
2024-04-05T09:14:06.891Z,600.00
2024-04-05T09:15:06.953Z,603.00
2024-04-05T09:16:07.046Z,600.00
2024-04-05T09:17:07.121Z,606.00
2024-04-05T09:18:07.080Z,606.00
2024-04-05T09:19:07.083Z,609.00
2024-04-05T09:20:07.080Z,610.00
2024-04-05T09:21:07.142Z,610.00
2024-04-05T09:22:07.562Z,608.00
2024-04-05T09:23:07.194Z,603.00
2024-04-05T09:24:07.270Z,608.00
2024-04-05T09:25:07.269Z,607.00
2024-04-05T09:26:07.549Z,603.00
2024-04-05T09:27:07.394Z,601.00
2024-04-05T09:28:07.619Z,601.00
2024-04-05T09:29:07.459Z,601.00
2024-04-05T09:30:08.035Z,600.00
2024-04-05T09:31:07.505Z,600.00
2024-04-05T09:32:07.588Z,600.00
2024-04-05T09:33:08.109Z,600.00
2024-04-05T09:34:07.658Z,601.00
2024-04-05T09:35:07.695Z,600.00
2024-04-05T09:36:07.760Z,603.00
2024-04-05T09:37:07.815Z,601.00
2024-04-05T09:38:07.829Z,603.00
2024-04-05T09:39:08.035Z,601.00
2024-04-05T09:40:07.890Z,601.00
2024-04-05T09:41:07.945Z,602.00
2024-04-05T09:42:07.950Z,608.00
2024-04-05T09:43:08.006Z,609.00
2024-04-05T09:44:14.091Z,613.00
2024-04-05T09:45:09.053Z,613.00
2024-04-05T09:46:08.086Z,614.00
2024-04-05T09:47:08.034Z,618.00
2024-04-05T09:48:08.038Z,621.00
2024-04-05T09:49:08.044Z,627.00
2024-04-05T09:50:08.060Z,631.00
2024-04-05T09:51:08.629Z,635.00
2024-04-05T09:52:08.066Z,638.00
2024-04-05T09:53:08.062Z,643.00
2024-04-05T09:54:08.084Z,647.00
2024-04-05T09:55:08.037Z,653.00
2024-04-05T09:56:08.060Z,654.00
2024-04-05T09:57:08.049Z,654.00
2024-04-05T09:58:08.078Z,660.00
2024-04-05T09:59:08.064Z,661.00
2024-04-05T10:00:08.086Z,664.00
2024-04-05T10:01:08.606Z,664.00
2024-04-05T10:02:08.086Z,667.00
2024-04-05T10:03:09.058Z,673.00
2024-04-05T10:04:08.109Z,668.00
2024-04-05T10:05:08.156Z,673.00
2024-04-05T10:06:08.121Z,686.00
2024-04-05T10:07:08.076Z,694.00
2024-04-05T10:08:08.201Z,695.00
2024-04-05T10:09:08.155Z,701.00
2024-04-05T10:10:08.164Z,703.00
2024-04-05T10:11:08.217Z,694.00
2024-04-05T10:12:08.264Z,713.00
2024-04-05T10:13:08.212Z,698.00
2024-04-05T10:14:09.143Z,695.00
2024-04-05T10:15:08.283Z,699.00
2024-04-05T10:16:08.310Z,704.00
2024-04-05T10:17:08.612Z,716.00
2024-04-05T10:18:08.298Z,711.00
2024-04-05T10:19:08.327Z,707.00
2024-04-05T10:20:08.367Z,712.00
2024-04-05T10:21:08.372Z,711.00
2024-04-05T10:22:08.578Z,707.00
2024-04-05T10:23:08.358Z,686.00
2024-04-05T10:24:09.074Z,665.00
2024-04-05T10:25:09.061Z,654.00
2024-04-05T10:26:08.606Z,637.00
2024-04-05T10:27:08.368Z,614.00
2024-04-05T10:28:08.380Z,607.00
2024-04-05T10:29:08.380Z,602.00
2024-04-05T10:30:08.431Z,600.00
2024-04-05T10:31:08.435Z,606.00
2024-04-05T10:32:08.613Z,612.00
2024-04-05T10:33:08.452Z,606.00
2024-04-05T10:34:08.737Z,600.00
2024-04-05T10:35:10.186Z,601.00
2024-04-05T10:36:08.576Z,603.00
2024-04-05T10:37:08.539Z,615.00
2024-04-05T10:38:19.219Z,629.00
2024-04-05T10:39:09.587Z,629.00
2024-04-05T10:40:08.527Z,632.00
2024-04-05T10:41:08.569Z,640.00
2024-04-05T10:42:08.507Z,645.00
2024-04-05T10:43:08.532Z,658.00
2024-04-05T10:44:08.552Z,643.00
2024-04-05T10:45:08.535Z,628.00
2024-04-05T10:46:08.597Z,607.00
2024-04-05T10:47:08.596Z,600.00
2024-04-05T10:48:08.566Z,600.00
2024-04-05T10:49:08.568Z,600.00
2024-04-05T10:50:08.590Z,605.00
2024-04-05T10:51:08.535Z,604.00
2024-04-05T10:52:08.536Z,607.00
2024-04-05T10:53:08.524Z,609.00
2024-04-05T10:54:08.547Z,614.00
2024-04-05T10:55:08.555Z,619.00
2024-04-05T10:56:08.770Z,619.00
2024-04-05T10:57:08.576Z,618.00
2024-04-05T10:58:08.507Z,620.00
2024-04-05T10:59:08.597Z,621.00
2024-04-05T11:00:08.545Z,626.00
2024-04-05T11:01:08.610Z,631.00
2024-04-05T11:02:08.552Z,640.00
2024-04-05T11:03:08.559Z,647.00
2024-04-05T11:04:08.540Z,658.00
2024-04-05T11:05:08.589Z,672.00
2024-04-05T11:06:08.557Z,664.00
2024-04-05T11:07:08.585Z,685.00
2024-04-05T11:08:08.636Z,713.00
2024-04-05T11:09:08.598Z,716.00
2024-04-05T11:10:19.589Z,735.00
2024-04-05T11:11:09.599Z,736.00
2024-04-05T11:12:08.577Z,737.00
2024-04-05T11:13:08.569Z,743.00
2024-04-05T11:14:08.595Z,747.00
2024-04-05T11:15:08.590Z,760.00
2024-04-05T11:16:08.597Z,773.00
2024-04-05T11:17:08.677Z,772.00
2024-04-05T11:18:08.610Z,788.00
2024-04-05T11:19:08.637Z,800.00
2024-04-05T11:20:08.625Z,833.00
2024-04-05T11:21:08.630Z,856.00
2024-04-05T11:22:08.598Z,882.00
2024-04-05T11:23:08.595Z,866.00
2024-04-05T11:24:09.121Z,880.00
2024-04-05T11:25:08.662Z,887.00
2024-04-05T11:26:08.579Z,875.00
2024-04-05T11:27:08.636Z,858.00
2024-04-05T11:28:08.627Z,872.00
2024-04-05T11:29:08.638Z,864.00
2024-04-05T11:30:08.596Z,856.00
2024-04-05T11:31:08.605Z,850.00
2024-04-05T11:32:08.602Z,858.00
2024-04-05T11:33:08.615Z,816.00
2024-04-05T11:34:08.622Z,805.00
2024-04-05T11:35:08.636Z,815.00
2024-04-05T11:36:08.639Z,784.00
2024-04-05T11:37:08.628Z,763.00
2024-04-05T11:38:08.650Z,728.00
2024-04-05T11:39:08.609Z,745.00
2024-04-05T11:40:09.133Z,753.00
2024-04-05T11:41:08.703Z,741.00
2024-04-05T11:42:08.684Z,693.00
2024-04-05T11:43:08.715Z,679.00
2024-04-05T11:44:08.710Z,658.00
2024-04-05T11:45:08.735Z,662.00
2024-04-05T11:46:08.701Z,656.00
2024-04-05T11:47:08.691Z,639.00
2024-04-05T11:48:08.715Z,635.00
2024-04-05T11:49:08.763Z,645.00
2024-04-05T11:50:08.732Z,634.00
2024-04-05T11:51:08.693Z,635.00
2024-04-05T11:52:08.725Z,632.00
2024-04-05T11:53:08.742Z,632.00
2024-04-05T11:54:08.736Z,626.00
2024-04-05T11:55:08.830Z,627.00
2024-04-05T11:56:08.778Z,612.00
2024-04-05T11:57:08.754Z,605.00
2024-04-05T11:58:08.750Z,600.00
2024-04-05T11:59:08.750Z,600.00
2024-04-05T12:00:08.752Z,600.00
2024-04-05T12:01:08.828Z,600.00
2024-04-05T12:02:08.879Z,600.00
2024-04-05T12:03:08.848Z,604.00
2024-04-05T12:04:08.875Z,608.00
2024-04-05T12:05:08.843Z,618.00
2024-04-05T12:06:08.886Z,622.00
2024-04-05T12:07:08.845Z,625.00
2024-04-05T12:08:11.453Z,625.00
2024-04-05T12:09:08.909Z,621.00
2024-04-05T12:10:08.938Z,620.00
2024-04-05T12:11:08.949Z,625.00
2024-04-05T12:12:08.898Z,626.00
2024-04-05T12:13:08.887Z,636.00
2024-04-05T12:14:13.206Z,642.00
2024-04-05T12:15:09.899Z,642.00
2024-04-05T12:16:08.888Z,642.00
2024-04-05T12:17:08.980Z,646.00
2024-04-05T12:18:08.904Z,651.00
2024-04-05T12:19:08.907Z,660.00
2024-04-05T12:20:12.236Z,663.00